Time;durP1;ratioP1;P1;durP2;ratioP2;P2;SDS_P1;SDS_P2;PMS_P1;PMS_P2;Temp;Humidity;BMP_temperature;BMP_pressure;BME280_temperature;BME280_humidity;BME280_pressure;Samples;Min_cycle;Max_cycle;Signal;HPM_P1;HPM_P2
2022/07/06 00:01:20;;;;;;;0.77;0.77;;;21.20;47.90;;;;;;5088478;28;20027;-83
2022/07/06 00:03:46;;;;;;;0.80;0.80;;;21.20;48.00;;;;;;5088016;28;20464;-83
2022/07/06 00:06:12;;;;;;;0.98;0.88;;;21.10;48.00;;;;;;5083428;28;20157;-83
2022/07/06 00:08:38;;;;;;;0.80;0.80;;;21.10;48.10;;;;;;5061514;28;20124;-83
2022/07/06 00:11:04;;;;;;;0.75;0.73;;;21.00;48.10;;;;;;5101590;28;20024;-84
2022/07/06 00:13:30;;;;;;;1.38;0.93;;;21.00;48.10;;;;;;5084344;28;20528;-84
2022/07/06 00:15:56;;;;;;;2.00;1.02;;;21.00;48.20;;;;;;5091526;28;20157;-84
2022/07/06 00:18:22;;;;;;;1.15;0.90;;;20.90;48.20;;;;;;5083763;28;20092;-84
2022/07/06 00:20:47;;;;;;;1.48;1.08;;;20.90;48.30;;;;;;5069450;28;20046;-83
2022/07/06 00:23:13;;;;;;;1.10;1.00;;;20.90;48.30;;;;;;5090685;28;20042;-83
2022/07/06 00:25:39;;;;;;;0.88;0.80;;;20.80;48.30;;;;;;5087945;28;20463;-83
2022/07/06 00:28:05;;;;;;;0.90;0.80;;;20.80;48.40;;;;;;5064075;28;20359;-83
2022/07/06 00:30:30;;;;;;;0.95;0.82;;;20.70;48.40;;;;;;5096191;28;20374;-83
2022/07/06 00:32:58;;;;;;;1.25;0.90;;;20.70;48.50;;;;;;5089479;28;20028;-84
2022/07/06 00:35:26;;;;;;;1.52;0.98;;;20.70;48.60;;;;;;5104445;28;20062;-83
2022/07/06 00:37:53;;;;;;;1.05;0.98;;;20.60;48.60;;;;;;5090197;28;20041;-83
2022/07/06 00:40:19;;;;;;;1.67;0.95;;;20.60;48.60;;;;;;5096432;28;20556;-83
2022/07/06 00:42:47;;;;;;;1.05;0.95;;;20.50;48.70;;;;;;5071143;28;20028;-83
2022/07/06 00:45:15;;;;;;;1.55;1.27;;;20.50;48.80;;;;;;5087990;28;20545;-83
2022/07/06 00:47:41;;;;;;;1.23;0.90;;;20.50;48.90;;;;;;5121520;28;20023;-83
2022/07/06 00:50:18;;;;;;;1.33;0.88;;;20.40;48.90;;;;;;5119805;28;20027;-83
2022/07/06 00:52:46;;;;;;;1.67;1.00;;;20.40;48.90;;;;;;5104614;28;20016;-84
2022/07/06 00:55:13;;;;;;;0.93;0.82;;;20.30;48.90;;;;;;5110311;28;20456;-83
2022/07/06 00:57:39;;;;;;;1.10;0.90;;;20.30;49.00;;;;;;5068761;28;20043;-83
2022/07/06 01:00:08;;;;;;;0.80;0.80;;;20.30;49.10;;;;;;5069150;28;20032;-83
2022/07/06 01:02:35;;;;;;;1.85;0.95;;;20.20;49.10;;;;;;5104178;28;20088;-82
2022/07/06 01:05:06;;;;;;;1.17;0.95;;;20.20;49.20;;;;;;5096036;28;20049;-83
2022/07/06 01:07:32;;;;;;;1.23;0.90;;;20.20;49.20;;;;;;5110793;28;20028;-84
2022/07/06 01:09:58;;;;;;;1.50;0.98;;;20.10;49.30;;;;;;5068698;28;20027;-83
2022/07/06 01:12:25;;;;;;;1.15;1.02;;;20.10;49.30;;;;;;5087495;28;20412;-83
2022/07/06 01:14:51;;;;;;;1.27;1.00;;;20.10;49.40;;;;;;5111965;28;20027;-83
2022/07/06 01:17:21;;;;;;;1.20;1.02;;;20.10;49.50;;;;;;5095807;28;20040;-83
2022/07/06 01:19:46;;;;;;;1.83;1.10;;;20.00;49.50;;;;;;5104244;28;20114;-82
2022/07/06 01:22:12;;;;;;;1.02;0.93;;;20.00;49.50;;;;;;5087465;28;20103;-83
2022/07/06 01:24:38;;;;;;;0.80;0.80;;;19.90;49.60;;;;;;5070271;28;20127;-83
2022/07/06 01:27:06;;;;;;;1.10;1.00;;;19.90;49.60;;;;;;5109742;28;20020;-83
2022/07/06 01:29:32;;;;;;;0.80;0.80;;;19.90;49.70;;;;;;5108825;28;20088;-84
2022/07/06 01:31:59;;;;;;;1.15;0.90;;;19.90;49.80;;;;;;5071475;28;20028;-83
2022/07/06 01:34:25;;;;;;;1.55;1.00;;;19.80;49.80;;;;;;5100187;28;20115;-83
2022/07/06 01:36:51;;;;;;;1.10;1.00;;;19.80;49.90;;;;;;5109608;28;20109;-83
2022/07/06 01:39:19;;;;;;;1.10;0.90;;;19.80;49.90;;;;;;5082390;28;20146;-84
2022/07/06 01:41:45;;;;;;;0.93;0.93;;;19.70;49.90;;;;;;5083918;28;20031;-84
2022/07/06 01:44:11;;;;;;;0.88;0.85;;;19.70;50.00;;;;;;5089677;28;20032;-83
2022/07/06 01:46:38;;;;;;;1.25;1.00;;;19.70;50.10;;;;;;5093349;28;20489;-83
2022/07/06 01:49:04;;;;;;;1.42;1.00;;;19.70;50.10;;;;;;5068154;28;20109;-84
2022/07/06 01:51:31;;;;;;;1.23;0.93;;;19.60;50.20;;;;;;5081408;28;20028;-83
2022/07/06 01:53:58;;;;;;;0.88;0.88;;;19.60;50.20;;;;;;5088451;28;20093;-84
2022/07/06 01:56:25;;;;;;;0.93;0.90;;;19.60;50.30;;;;;;5077775;28;20028;-84
2022/07/06 01:58:57;;;;;;;1.10;1.00;;;19.50;50.30;;;;;;5088259;28;20051;-83
2022/07/06 02:01:23;;;;;;;2.20;1.10;;;19.50;50.30;;;;;;5091281;28;20436;-83
2022/07/06 02:03:49;;;;;;;1.88;1.00;;;19.50;50.40;;;;;;5067279;28;20020;-83
2022/07/06 02:06:15;;;;;;;1.48;1.00;;;19.40;50.40;;;;;;5090888;28;20081;-83
2022/07/06 02:08:42;;;;;;;1.13;0.98;;;19.40;50.50;;;;;;5090488;28;20097;-83
2022/07/06 02:11:09;;;;;;;1.15;1.00;;;19.40;50.60;;;;;;5094023;28;20032;-83
2022/07/06 02:13:37;;;;;;;0.93;0.93;;;19.40;50.60;;;;;;5095100;28;20071;-83
2022/07/06 02:16:05;;;;;;;1.55;1.10;;;19.30;50.60;;;;;;5078771;28;20464;-83
2022/07/06 02:18:31;;;;;;;1.23;1.10;;;19.30;50.60;;;;;;5077468;28;20537;-83
2022/07/06 02:20:57;;;;;;;1.00;0.95;;;19.30;50.70;;;;;;5086299;28;20031;-83
2022/07/06 02:23:23;;;;;;;0.88;0.88;;;19.30;50.80;;;;;;5094479;28;20126;-83
2022/07/06 02:25:51;;;;;;;1.52;1.20;;;19.20;50.80;;;;;;5102693;28;20028;-83
2022/07/06 02:28:17;;;;;;;0.93;0.93;;;19.30;50.90;;;;;;5108014;28;20039;-82
2022/07/06 02:30:43;;;;;;;1.40;1.02;;;19.20;50.90;;;;;;5077751;28;20042;-84
2022/07/06 02:33:10;;;;;;;1.10;1.00;;;19.20;51.00;;;;;;5093050;28;20035;-83
2022/07/06 02:35:41;;;;;;;1.25;1.02;;;19.20;51.00;;;;;;5089307;28;20024;-83
2022/07/06 02:38:09;;;;;;;0.90;0.90;;;19.10;51.10;;;;;;5093856;28;20127;-83
2022/07/06 02:40:35;;;;;;;0.90;0.88;;;19.10;51.10;;;;;;5093554;28;20027;-84
2022/07/06 02:43:01;;;;;;;0.90;0.90;;;19.10;51.20;;;;;;5111136;28;20479;-83
2022/07/06 02:45:27;;;;;;;1.15;1.05;;;19.00;51.20;;;;;;5110970;28;20429;-83
2022/07/06 02:47:55;;;;;;;1.08;0.93;;;19.00;51.20;;;;;;5084978;28;20030;-83
2022/07/06 02:50:22;;;;;;;1.58;1.00;;;19.00;51.30;;;;;;5091875;28;20035;-83
2022/07/06 02:52:47;;;;;;;0.90;0.90;;;19.00;51.30;;;;;;5111691;28;20422;-82
2022/07/06 02:55:13;;;;;;;2.08;1.13;;;19.00;51.40;;;;;;5093274;28;20029;-83
2022/07/06 02:57:40;;;;;;;1.10;1.00;;;18.90;51.40;;;;;;5087035;28;20673;-83
2022/07/06 03:00:09;;;;;;;2.08;1.10;;;18.90;51.40;;;;;;5084617;28;20229;-84
2022/07/06 03:02:35;;;;;;;1.00;0.90;;;18.90;51.50;;;;;;5103568;28;20020;-83
2022/07/06 03:05:01;;;;;;;1.48;0.90;;;18.80;51.50;;;;;;5110643;28;20485;-84
2022/07/06 03:07:28;;;;;;;1.50;1.10;;;18.80;51.50;;;;;;5097883;28;20019;-83
2022/07/06 03:09:54;;;;;;;1.65;1.20;;;18.80;52.20;;;;;;5110197;28;20039;-82
2022/07/06 03:12:19;;;;;;;1.00;1.00;;;18.80;51.60;;;;;;5111281;28;20498;-83
2022/07/06 03:14:45;;;;;;;2.30;1.13;;;18.80;51.60;;;;;;5092202;28;20162;-84
2022/07/06 03:17:11;;;;;;;1.00;0.98;;;18.80;51.70;;;;;;5048596;28;20491;-83
2022/07/06 03:19:38;;;;;;;1.45;1.20;;;18.70;51.70;;;;;;5094879;28;20077;-84
2022/07/06 03:22:04;;;;;;;1.52;1.00;;;18.70;51.70;;;;;;5097573;28;20020;-83
2022/07/06 03:24:29;;;;;;;1.15;1.00;;;18.70;51.80;;;;;;5114838;28;20020;-83
2022/07/06 03:26:55;;;;;;;1.30;1.05;;;18.60;51.80;;;;;;5073627;28;20125;-83
2022/07/06 03:29:21;;;;;;;2.28;1.13;;;18.60;51.80;;;;;;5113242;28;20035;-84
2022/07/06 03:31:47;;;;;;;1.15;1.00;;;18.60;51.90;;;;;;5077847;28;20038;-83
2022/07/06 03:34:13;;;;;;;1.13;1.00;;;18.60;51.90;;;;;;5075276;28;20475;-83
2022/07/06 03:36:40;;;;;;;1.10;1.00;;;18.60;51.90;;;;;;5096906;28;20399;-84
2022/07/06 03:39:07;;;;;;;1.67;1.23;;;18.50;51.90;;;;;;5068486;28;20124;-83
2022/07/06 03:41:35;;;;;;;1.10;0.95;;;18.50;52.00;;;;;;5090398;28;20027;-83
2022/07/06 03:44:01;;;;;;;1.17;1.08;;;18.50;52.00;;;;;;5095645;28;20034;-84
2022/07/06 03:46:28;;;;;;;1.38;1.05;;;18.50;52.10;;;;;;5085791;28;20034;-84
2022/07/06 03:48:54;;;;;;;1.20;1.10;;;18.40;52.10;;;;;;5095851;28;20042;-84
2022/07/06 03:51:20;;;;;;;0.90;0.90;;;18.40;52.10;;;;;;5077899;28;20029;-84
2022/07/06 03:53:46;;;;;;;2.17;1.30;;;18.40;52.20;;;;;;5092254;28;20122;-84
2022/07/06 03:56:29;;;;;;;1.55;0.98;;;18.40;52.20;;;;;;5071874;28;20036;-84
2022/07/06 03:59:02;;;;;;;1.73;1.10;;;18.40;52.30;;;;;;5065291;28;20430;-83
2022/07/06 04:01:31;;;;;;;1.50;1.13;;;18.40;52.30;;;;;;5101559;28;20432;-84
2022/07/06 04:03:58;;;;;;;1.27;1.10;;;18.40;52.40;;;;;;5097179;28;20092;-83
2022/07/06 04:06:23;;;;;;;1.10;1.00;;;18.30;52.40;;;;;;5083838;28;20035;-83
2022/07/06 04:08:49;;;;;;;1.17;0.98;;;18.30;52.40;;;;;;5087565;28;20039;-83
2022/07/06 04:11:15;;;;;;;1.17;1.08;;;18.30;52.50;;;;;;5115202;28;20031;-83
2022/07/06 04:13:41;;;;;;;1.13;1.02;;;18.30;52.50;;;;;;5094061;28;20388;-84
2022/07/06 04:16:07;;;;;;;1.58;1.00;;;18.30;52.60;;;;;;5060132;28;20077;-83
2022/07/06 04:18:33;;;;;;;1.23;1.00;;;18.30;52.60;;;;;;5093008;28;20024;-83
2022/07/06 04:20:59;;;;;;;1.83;1.30;;;18.30;52.70;;;;;;5106734;28;20030;-83
2022/07/06 04:23:28;;;;;;;1.15;1.00;;;18.30;52.70;;;;;;5084048;28;20020;-82
2022/07/06 04:25:55;;;;;;;1.17;1.08;;;18.20;52.70;;;;;;5093952;28;20081;-84
2022/07/06 04:28:20;;;;;;;1.40;1.30;;;18.20;52.70;;;;;;5068245;28;20040;-83
2022/07/06 04:30:46;;;;;;;1.77;1.15;;;18.30;52.90;;;;;;5086512;28;20383;-83
2022/07/06 04:33:16;;;;;;;1.23;1.10;;;18.30;52.90;;;;;;5078591;28;20020;-83
2022/07/06 04:35:44;;;;;;;1.25;1.00;;;18.20;52.80;;;;;;5077563;28;20424;-85
2022/07/06 04:38:10;;;;;;;2.35;1.08;;;18.20;52.90;;;;;;5053626;28;20488;-83
2022/07/06 04:40:36;;;;;;;1.73;1.15;;;18.30;53.00;;;;;;5096473;28;20152;-80
2022/07/06 04:43:06;;;;;;;1.55;1.10;;;18.20;53.00;;;;;;5079212;28;20035;-81
2022/07/06 04:45:33;;;;;;;1.75;1.17;;;18.30;53.00;;;;;;5090676;28;20031;-82
2022/07/06 04:48:00;;;;;;;1.25;1.13;;;18.20;53.00;;;;;;5078714;28;20019;-83
2022/07/06 04:50:26;;;;;;;1.38;1.10;;;18.20;53.10;;;;;;5094791;28;20497;-82
2022/07/06 04:52:55;;;;;;;1.27;1.00;;;18.20;53.10;;;;;;5102498;28;20053;-82
2022/07/06 04:55:21;;;;;;;1.35;1.00;;;18.20;53.10;;;;;;5069372;28;20055;-82
2022/07/06 04:57:48;;;;;;;1.83;1.13;;;18.20;53.20;;;;;;5091946;28;20483;-83
2022/07/06 05:00:16;;;;;;;0.95;0.90;;;18.20;53.20;;;;;;5103828;28;20602;-81
2022/07/06 05:02:42;;;;;;;1.80;1.20;;;18.20;53.30;;;;;;5071049;28;20036;-81
2022/07/06 05:05:09;;;;;;;1.10;1.10;;;18.20;53.30;;;;;;5102714;28;20035;-81
2022/07/06 05:07:39;;;;;;;1.40;1.30;;;18.20;53.30;;;;;;5075182;28;20562;-79
2022/07/06 05:10:07;;;;;;;1.27;1.10;;;18.10;53.30;;;;;;5107428;28;20028;-79
2022/07/06 05:12:32;;;;;;;1.33;1.10;;;18.20;53.40;;;;;;5081516;28;20031;-80
2022/07/06 05:14:59;;;;;;;0.90;0.90;;;18.10;53.40;;;;;;5077062;28;20439;-79
2022/07/06 05:17:25;;;;;;;1.33;1.20;;;18.10;53.40;;;;;;5070650;28;20024;-81
2022/07/06 05:19:52;;;;;;;1.38;1.00;;;18.10;53.40;;;;;;5077379;28;20061;-80
2022/07/06 05:22:18;;;;;;;1.30;1.10;;;18.10;53.50;;;;;;5053303;28;20023;-81
2022/07/06 05:24:45;;;;;;;1.23;1.10;;;18.10;53.50;;;;;;5095082;28;20118;-81
2022/07/06 05:27:11;;;;;;;1.73;1.15;;;18.10;53.50;;;;;;5094605;28;20077;-81
2022/07/06 05:29:37;;;;;;;1.30;1.08;;;18.10;53.50;;;;;;5070067;28;20115;-82
2022/07/06 05:32:03;;;;;;;1.45;1.13;;;18.10;53.50;;;;;;5094792;28;20111;-81
2022/07/06 05:34:29;;;;;;;1.58;1.20;;;18.20;53.60;;;;;;5106305;28;20032;-82
2022/07/06 05:36:55;;;;;;;1.67;1.15;;;18.10;53.60;;;;;;5090948;28;20077;-81
2022/07/06 05:39:22;;;;;;;2.20;1.20;;;18.20;53.70;;;;;;5080414;28;20047;-82
2022/07/06 05:41:49;;;;;;;1.20;1.10;;;18.10;53.60;;;;;;5070469;28;20071;-82
2022/07/06 05:44:16;;;;;;;1.83;1.20;;;18.10;53.60;;;;;;5075012;28;20055;-82
2022/07/06 05:46:42;;;;;;;2.70;1.15;;;18.10;53.70;;;;;;5087485;28;20110;-82
2022/07/06 05:51:53;;;;;;;1.10;1.00;;;18.10;53.70;;;;;;5073571;28;20036;-80
2022/07/06 05:54:20;;;;;;;2.42;1.30;;;18.20;53.70;;;;;;5067745;28;20028;-80
2022/07/06 05:56:46;;;;;;;1.33;1.10;;;18.20;53.70;;;;;;5074964;28;20030;-81
2022/07/06 05:59:12;;;;;;;1.27;1.10;;;18.20;53.70;;;;;;5066991;28;20047;-81
2022/07/06 06:01:38;;;;;;;1.10;1.00;;;18.20;53.80;;;;;;5072511;28;20142;-80
2022/07/06 06:04:11;;;;;;;1.17;1.02;;;18.10;53.70;;;;;;5063134;28;20051;-81
2022/07/06 06:06:38;;;;;;;1.13;0.98;;;18.20;53.80;;;;;;5094379;28;20039;-79
2022/07/06 06:09:03;;;;;;;1.02;0.93;;;18.20;53.80;;;;;;5073914;28;20392;-80
2022/07/06 06:11:29;;;;;;;1.02;0.93;;;18.20;53.80;;;;;;5075237;28;20472;-82
2022/07/06 06:13:55;;;;;;;1.08;1.00;;;18.20;53.80;;;;;;5077744;28;20024;-80
2022/07/06 06:16:21;;;;;;;1.13;1.00;;;18.20;53.80;;;;;;5069392;28;20024;-80
2022/07/06 06:18:47;;;;;;;1.08;1.00;;;18.20;53.80;;;;;;5094185;28;20043;-81
2022/07/06 06:21:13;;;;;;;1.23;0.90;;;18.30;53.90;;;;;;5112648;28;20371;-80
2022/07/06 06:23:38;;;;;;;1.38;0.90;;;18.30;53.80;;;;;;5077371;28;20019;-82
2022/07/06 06:26:04;;;;;;;0.98;0.88;;;18.30;53.80;;;;;;5075553;28;20027;-81
2022/07/06 06:28:30;;;;;;;1.02;0.95;;;18.30;53.80;;;;;;5089826;28;20369;-81
2022/07/06 06:30:56;;;;;;;1.58;1.00;;;18.30;53.80;;;;;;5077209;28;20468;-82
2022/07/06 06:33:22;;;;;;;0.70;0.70;;;18.30;53.80;;;;;;5088927;28;20032;-81
2022/07/06 06:35:52;;;;;;;0.95;0.90;;;18.40;53.90;;;;;;5090432;28;20036;-81
2022/07/06 06:38:25;;;;;;;1.00;0.80;;;18.40;53.90;;;;;;5099664;28;20779;-81
2022/07/06 06:40:52;;;;;;;0.88;0.80;;;18.30;53.80;;;;;;5094412;28;20101;-81
2022/07/06 06:43:18;;;;;;;0.75;0.75;;;18.40;53.80;;;;;;5077272;28;20032;-83
2022/07/06 06:45:53;;;;;;;0.70;0.70;;;18.40;53.80;;;;;;5087606;28;20420;-81
2022/07/06 06:48:19;;;;;;;0.77;0.77;;;18.40;53.70;;;;;;5101046;28;20058;-81
2022/07/06 06:50:45;;;;;;;0.80;0.80;;;18.40;53.70;;;;;;5082973;28;20032;-83
2022/07/06 06:53:12;;;;;;;0.98;0.80;;;18.40;53.90;;;;;;5066191;28;20066;-83
2022/07/06 06:55:37;;;;;;;0.88;0.82;;;18.40;53.90;;;;;;5106530;28;20020;-81
2022/07/06 06:58:03;;;;;;;1.17;0.77;;;18.40;53.90;;;;;;5064099;28;20086;-82
2022/07/06 07:00:29;;;;;;;0.70;0.70;;;18.50;53.90;;;;;;5056384;28;20145;-82
2022/07/06 07:02:55;;;;;;;1.05;0.90;;;18.50;53.90;;;;;;5089999;28;20031;-84
2022/07/06 07:05:20;;;;;;;1.23;0.90;;;18.50;53.90;;;;;;5086173;28;20376;-81
2022/07/06 07:07:46;;;;;;;1.13;0.80;;;18.50;53.90;;;;;;5097911;28;20387;-82
2022/07/06 07:10:12;;;;;;;0.90;0.90;;;18.50;53.90;;;;;;5106173;28;20023;-81
2022/07/06 07:12:48;;;;;;;0.85;0.85;;;18.50;53.90;;;;;;5095632;28;20169;-83
2022/07/06 07:15:15;;;;;;;1.20;1.10;;;18.60;54.70;;;;;;5103112;28;20027;-81
2022/07/06 07:17:41;;;;;;;1.30;0.90;;;18.60;54.00;;;;;;5114104;28;20024;-81
2022/07/06 07:20:08;;;;;;;1.15;0.70;;;18.60;54.00;;;;;;5102302;28;20043;-82
2022/07/06 07:22:33;;;;;;;1.40;0.70;;;18.60;54.00;;;;;;5054282;28;20035;-81
2022/07/06 07:24:59;;;;;;;0.77;0.77;;;18.70;54.10;;;;;;5088949;28;20035;-81
2022/07/06 07:27:25;;;;;;;0.70;0.70;;;18.60;54.10;;;;;;5093739;28;20047;-81
2022/07/06 07:29:53;;;;;;;0.70;0.70;;;18.70;54.20;;;;;;5113796;28;20039;-81
2022/07/06 07:32:19;;;;;;;0.82;0.82;;;18.70;54.10;;;;;;5105486;28;20147;-85
2022/07/06 07:34:45;;;;;;;0.70;0.70;;;18.80;54.10;;;;;;5088856;28;20030;-81
2022/07/06 07:37:11;;;;;;;0.80;0.80;;;18.80;54.10;;;;;;5093473;28;20040;-81
2022/07/06 07:39:37;;;;;;;1.88;0.90;;;18.80;54.00;;;;;;5107865;28;20104;-82
2022/07/06 07:42:03;;;;;;;1.20;0.82;;;18.90;54.00;;;;;;5105505;28;20528;-81
2022/07/06 07:44:29;;;;;;;0.88;0.80;;;18.90;53.90;;;;;;5114978;28;20024;-80
2022/07/06 07:46:54;;;;;;;0.77;0.77;;;19.00;53.90;;;;;;5088912;28;20031;-82
2022/07/06 07:49:21;;;;;;;0.70;0.70;;;19.00;53.80;;;;;;5090818;28;20055;-82
2022/07/06 07:51:48;;;;;;;0.88;0.70;;;19.10;53.80;;;;;;5077068;28;20477;-83
2022/07/06 07:54:13;;;;;;;1.10;0.85;;;19.10;53.70;;;;;;5087932;28;20564;-82
2022/07/06 07:56:40;;;;;;;2.15;0.80;;;19.10;53.60;;;;;;5087906;28;20103;-82
2022/07/06 07:59:06;;;;;;;0.70;0.60;;;19.20;53.60;;;;;;5087759;28;20168;-81
2022/07/06 08:01:33;;;;;;;0.88;0.73;;;19.30;53.50;;;;;;5085263;28;20023;-82
2022/07/06 08:03:59;;;;;;;1.15;0.77;;;19.40;53.40;;;;;;5108635;28;20119;-82
2022/07/06 08:06:25;;;;;;;1.25;0.60;;;19.40;53.30;;;;;;5102067;28;20437;-82
2022/07/06 08:08:50;;;;;;;0.95;0.68;;;19.50;53.30;;;;;;5092376;28;20165;-82
2022/07/06 08:11:16;;;;;;;1.42;0.70;;;19.50;53.20;;;;;;5085063;28;20059;-83
2022/07/06 08:13:42;;;;;;;0.80;0.77;;;19.60;53.10;;;;;;5095342;28;20124;-81
2022/07/06 08:16:09;;;;;;;1.10;0.75;;;19.70;53.10;;;;;;5095813;28;20031;-83
2022/07/06 08:18:35;;;;;;;0.75;0.57;;;19.70;53.00;;;;;;5114624;28;20038;-84
2022/07/06 08:21:02;;;;;;;0.70;0.70;;;19.80;52.90;;;;;;5113984;28;20055;-83
2022/07/06 08:23:27;;;;;;;1.17;0.60;;;20.00;52.90;;;;;;5096237;28;20031;-82
2022/07/06 08:25:53;;;;;;;0.60;0.60;;;20.00;52.80;;;;;;5104932;28;20039;-82
2022/07/06 08:28:19;;;;;;;0.77;0.77;;;20.10;52.70;;;;;;5086245;28;20063;-83
2022/07/06 08:30:45;;;;;;;0.80;0.70;;;20.20;52.60;;;;;;5069427;28;20028;-82
2022/07/06 08:33:10;;;;;;;0.85;0.70;;;20.20;52.50;;;;;;5087414;28;20015;-82
2022/07/06 08:35:36;;;;;;;1.35;0.70;;;20.30;52.40;;;;;;5113576;28;20034;-83
2022/07/06 08:38:02;;;;;;;0.65;0.63;;;20.40;52.40;;;;;;5113022;28;20122;-81
2022/07/06 08:40:35;;;;;;;0.80;0.70;;;20.40;52.30;;;;;;5076781;28;20055;-83
2022/07/06 08:43:01;;;;;;;0.60;0.60;;;20.50;52.30;;;;;;5104470;28;20028;-82
2022/07/06 08:45:27;;;;;;;0.70;0.70;;;20.60;52.20;;;;;;5104724;28;20023;-82
2022/07/06 08:47:55;;;;;;;1.38;0.70;;;20.70;52.10;;;;;;5113273;28;20046;-82
2022/07/06 08:50:21;;;;;;;0.57;0.50;;;20.70;52.00;;;;;;5090862;28;20429;-81
2022/07/06 08:52:50;;;;;;;0.68;0.68;;;20.80;51.90;;;;;;5112861;28;20024;-82
2022/07/06 08:55:17;;;;;;;0.90;0.70;;;20.90;51.90;;;;;;5105215;28;20040;-86
2022/07/06 08:57:46;;;;;;;0.50;0.50;;;21.00;51.80;;;;;;5104419;28;20036;-83
2022/07/06 09:00:12;;;;;;;0.60;0.60;;;21.10;51.70;;;;;;5101906;28;20064;-82
2022/07/06 09:02:40;;;;;;;1.27;0.60;;;21.10;51.60;;;;;;5087295;28;20098;-83
2022/07/06 09:05:08;;;;;;;0.70;0.50;;;21.20;51.50;;;;;;5106424;28;20148;-84
2022/07/06 09:07:34;;;;;;;0.50;0.50;;;21.30;51.50;;;;;;5105857;28;20141;-84
2022/07/06 09:10:02;;;;;;;0.73;0.43;;;21.30;51.40;;;;;;5079830;28;20027;-85
2022/07/06 09:12:28;;;;;;;0.40;0.40;;;21.40;51.50;;;;;;5087772;28;20039;-84
2022/07/06 09:14:56;;;;;;;1.05;0.60;;;21.50;51.30;;;;;;5087342;28;20028;-84
2022/07/06 09:17:26;;;;;;;0.50;0.50;;;21.50;51.20;;;;;;5053549;28;20042;-84
2022/07/06 09:19:52;;;;;;;0.43;0.43;;;21.60;51.20;;;;;;5104360;28;20059;-83
2022/07/06 09:22:30;;;;;;;0.68;0.50;;;21.70;51.10;;;;;;5087330;28;20459;-84
2022/07/06 09:25:04;;;;;;;0.70;0.50;;;21.70;51.00;;;;;;5087295;28;20027;-84
2022/07/06 09:27:30;;;;;;;0.40;0.40;;;21.80;51.00;;;;;;5112583;28;20080;-85
2022/07/06 09:30:01;;;;;;;0.50;0.50;;;21.90;50.90;;;;;;5068902;28;20671;-85
2022/07/06 09:32:27;;;;;;;0.63;0.63;;;21.90;50.80;;;;;;5101551;28;20119;-83
2022/07/06 09:34:54;;;;;;;0.50;0.50;;;22.00;50.70;;;;;;5092008;28;20565;-85
2022/07/06 09:37:23;;;;;;;0.43;0.43;;;22.00;50.60;;;;;;5067706;28;20074;-85
2022/07/06 09:39:49;;;;;;;0.57;0.57;;;22.10;50.60;;;;;;5071547;28;20044;-84
2022/07/06 09:42:15;;;;;;;0.82;0.52;;;22.10;50.50;;;;;;5073688;28;20040;-83
2022/07/06 09:44:41;;;;;;;1.08;0.57;;;22.20;50.50;;;;;;5086481;28;20026;-87
2022/07/06 09:47:10;;;;;;;0.38;0.38;;;22.30;50.50;;;;;;5069731;28;20063;-87
2022/07/06 09:49:39;;;;;;;0.40;0.40;;;22.30;50.40;;;;;;5085219;28;20036;-84
2022/07/06 09:52:08;;;;;;;0.50;0.50;;;22.40;50.40;;;;;;5100630;28;20032;-84
2022/07/06 09:54:34;;;;;;;0.43;0.43;;;22.50;50.30;;;;;;5089862;28;20023;-85
2022/07/06 09:57:01;;;;;;;0.47;0.47;;;22.50;50.30;;;;;;5088568;28;20490;-87
2022/07/06 09:59:29;;;;;;;1.00;0.50;;;22.60;50.20;;;;;;5074885;28;20036;-84
2022/07/06 10:02:00;;;;;;;1.08;0.65;;;22.70;50.20;;;;;;5092223;28;20115;-85
2022/07/06 10:04:27;;;;;;;1.80;0.95;;;22.70;50.10;;;;;;5083170;28;20376;-85
2022/07/06 10:06:54;;;;;;;0.65;0.52;;;22.80;50.00;;;;;;5083425;28;20055;-84
2022/07/06 10:09:22;;;;;;;0.50;0.50;;;22.90;50.00;;;;;;5083142;28;20035;-84
2022/07/06 10:11:51;;;;;;;0.57;0.50;;;22.90;49.80;;;;;;5079538;28;20028;-84
2022/07/06 10:14:20;;;;;;;0.52;0.52;;;23.00;49.80;;;;;;5087496;28;20061;-83
2022/07/06 10:16:47;;;;;;;0.57;0.50;;;23.10;49.70;;;;;;5092017;28;20043;-85
2022/07/06 10:19:14;;;;;;;0.68;0.50;;;23.20;49.70;;;;;;5099874;28;20163;-84
2022/07/06 10:21:40;;;;;;;1.88;0.60;;;23.20;49.60;;;;;;5092504;28;20033;-85
2022/07/06 10:24:07;;;;;;;0.60;0.60;;;23.30;49.50;;;;;;5091267;28;20137;-85
2022/07/06 10:26:35;;;;;;;0.65;0.60;;;23.30;49.50;;;;;;5058090;28;20472;-87
2022/07/06 10:29:03;;;;;;;0.40;0.40;;;23.40;49.50;;;;;;5100452;28;20024;-84
2022/07/06 10:31:30;;;;;;;0.38;0.38;;;23.50;49.40;;;;;;5089878;28;20034;-84
2022/07/06 10:33:58;;;;;;;2.00;0.57;;;23.50;49.40;;;;;;5086022;28;20027;-87
2022/07/06 10:36:24;;;;;;;0.82;0.60;;;23.60;49.30;;;;;;5094913;28;20103;-82
2022/07/06 10:38:52;;;;;;;0.60;0.60;;;23.60;49.20;;;;;;5084124;28;20492;-81
2022/07/06 10:41:29;;;;;;;0.88;0.60;;;23.70;49.20;;;;;;5090323;28;20137;-84
2022/07/06 10:43:57;;;;;;;0.93;0.40;;;23.70;49.00;;;;;;5084037;28;20024;-88
2022/07/06 10:46:23;;;;;;;0.40;0.40;;;23.80;49.00;;;;;;5103338;28;20032;-87
2022/07/06 10:48:49;;;;;;;0.57;0.50;;;23.80;48.90;;;;;;5070443;28;20361;-86
2022/07/06 10:51:31;;;;;;;0.88;0.50;;;23.90;48.90;;;;;;5109007;28;20024;-85
2022/07/06 10:54:04;;;;;;;0.63;0.43;;;24.00;48.90;;;;;;5089812;28;20021;-85
2022/07/06 10:56:40;;;;;;;0.52;0.35;;;24.00;48.70;;;;;;5092555;28;20028;-85
2022/07/06 10:59:11;;;;;;;0.70;0.40;;;24.10;48.80;;;;;;5105132;28;20040;-84
2022/07/06 11:01:37;;;;;;;0.40;0.40;;;24.10;48.70;;;;;;5091707;28;20039;-84
2022/07/06 11:04:03;;;;;;;1.33;0.43;;;24.20;48.70;;;;;;5083812;28;20021;-87
2022/07/06 11:06:32;;;;;;;1.02;0.50;;;24.20;48.60;;;;;;5093030;28;20336;-88
2022/07/06 11:09:03;;;;;;;0.57;0.50;;;24.30;48.60;;;;;;5105345;28;20024;-86
2022/07/06 11:11:31;;;;;;;0.32;0.32;;;24.30;48.60;;;;;;5087742;28;20032;-86
2022/07/06 11:14:15;;;;;;;0.52;0.47;;;24.40;48.60;;;;;;5086488;28;20118;-86
2022/07/06 11:16:47;;;;;;;0.68;0.50;;;24.40;48.60;;;;;;5094124;28;20024;-87
2022/07/06 11:19:15;;;;;;;0.40;0.40;;;24.40;48.50;;;;;;5087835;28;20036;-89
2022/07/06 11:21:41;;;;;;;0.40;0.40;;;24.50;48.50;;;;;;5100861;28;20530;-87
2022/07/06 11:24:10;;;;;;;0.55;0.50;;;24.50;48.50;;;;;;5112626;28;20028;-87
2022/07/06 11:26:36;;;;;;;0.50;0.50;;;24.60;48.50;;;;;;5088517;28;20119;-87
2022/07/06 11:29:06;;;;;;;0.77;0.60;;;24.60;48.40;;;;;;5090445;28;20032;-87
2022/07/06 11:31:37;;;;;;;0.50;0.50;;;24.60;48.40;;;;;;5095752;28;20063;-87
2022/07/06 11:34:04;;;;;;;0.65;0.50;;;24.70;48.30;;;;;;5093914;28;20028;-87
2022/07/06 11:36:30;;;;;;;0.45;0.40;;;24.70;48.30;;;;;;5083685;28;20057;-85
2022/07/06 11:38:56;;;;;;;1.15;0.60;;;24.70;48.30;;;;;;5091815;28;20079;-86
2022/07/06 11:41:21;;;;;;;0.40;0.40;;;24.80;48.30;;;;;;5088122;28;20032;-87
2022/07/06 11:43:50;;;;;;;1.10;0.68;;;24.80;49.00;;;;;;5072310;28;20486;-87
2022/07/06 11:46:23;;;;;;;0.73;0.70;;;24.80;48.30;;;;;;5070874;28;20403;-87
2022/07/06 11:48:51;;;;;;;0.98;0.50;;;24.80;48.30;;;;;;5099790;28;20024;-86
2022/07/06 11:51:17;;;;;;;0.40;0.40;;;24.90;48.30;;;;;;5098921;28;20058;-87
2022/07/06 11:53:44;;;;;;;1.00;0.60;;;24.90;48.30;;;;;;5095862;28;20032;-85
2022/07/06 11:56:10;;;;;;;0.40;0.40;;;24.90;48.30;;;;;;5093269;28;20024;-86
2022/07/06 11:58:39;;;;;;;0.60;0.40;;;24.90;48.20;;;;;;5089069;28;20032;-85
2022/07/06 12:01:10;;;;;;;0.40;0.40;;;25.00;48.30;;;;;;5106726;28;20044;-87
2022/07/06 12:03:37;;;;;;;0.85;0.40;;;25.00;48.30;;;;;;5083089;28;20032;-85
2022/07/06 12:06:05;;;;;;;0.77;0.50;;;25.00;48.30;;;;;;5085392;28;20093;-86
2022/07/06 12:08:31;;;;;;;0.50;0.50;;;25.00;48.20;;;;;;5094872;28;20038;-85
2022/07/06 12:10:57;;;;;;;0.35;0.35;;;25.00;48.20;;;;;;5084939;28;20103;-86
2022/07/06 12:13:24;;;;;;;0.50;0.50;;;25.00;48.20;;;;;;5101411;28;20032;-84
2022/07/06 12:15:50;;;;;;;1.42;0.50;;;25.10;48.30;;;;;;5081621;28;20031;-83
2022/07/06 12:18:16;;;;;;;0.40;0.40;;;25.10;48.90;;;;;;5102344;28;20483;-89
2022/07/06 12:20:42;;;;;;;0.43;0.43;;;25.10;48.30;;;;;;5080817;28;20027;-85
2022/07/06 12:23:08;;;;;;;0.40;0.40;;;25.10;48.20;;;;;;5087517;28;20031;-84
2022/07/06 12:25:35;;;;;;;1.10;0.40;;;25.20;48.30;;;;;;5085088;28;20024;-87
2022/07/06 12:28:02;;;;;;;0.50;0.50;;;25.20;48.30;;;;;;5068322;28;20090;-86
2022/07/06 12:30:29;;;;;;;0.80;0.60;;;25.20;48.30;;;;;;5079441;28;20024;-85
2022/07/06 12:33:20;;;;;;;0.50;0.50;;;25.20;48.30;;;;;;5084944;28;20024;-85
2022/07/06 12:35:46;;;;;;;0.60;0.47;;;25.20;48.40;;;;;;5088499;28;20107;-86
2022/07/06 12:38:12;;;;;;;0.95;0.77;;;25.20;48.30;;;;;;5060473;28;20132;-85
2022/07/06 12:40:38;;;;;;;0.73;0.52;;;25.20;48.30;;;;;;5096589;28;20122;-86
2022/07/06 12:43:05;;;;;;;0.60;0.60;;;25.30;48.40;;;;;;5105315;28;20040;-86
2022/07/06 12:45:31;;;;;;;0.40;0.40;;;25.30;48.40;;;;;;5096301;28;20031;-84
2022/07/06 12:47:59;;;;;;;0.80;0.50;;;25.30;48.40;;;;;;5088674;28;20028;-84
2022/07/06 12:50:36;;;;;;;0.70;0.60;;;25.30;48.40;;;;;;5090511;28;20054;-84